createdAt,value
2019-01-11T00:01:33.840Z,22.90
2019-01-11T00:04:38.193Z,21.13
2019-01-11T00:07:42.461Z,23.37
2019-01-11T00:10:46.785Z,16.87
2019-01-11T00:13:51.072Z,18.07
2019-01-11T00:16:55.407Z,18.23
2019-01-11T00:20:03.468Z,15.50
2019-01-11T00:23:05.900Z,15.97
2019-01-11T00:26:10.181Z,16.30
2019-01-11T00:29:14.521Z,18.10
2019-01-11T00:32:18.886Z,15.10
2019-01-11T00:35:23.225Z,13.33
2019-01-11T00:38:27.576Z,14.07
2019-01-11T00:41:31.918Z,14.47
2019-01-11T00:44:36.197Z,15.30
2019-01-11T00:47:40.492Z,13.93
2019-01-11T00:50:44.782Z,14.23
2019-01-11T00:53:49.213Z,16.73
2019-01-11T00:56:53.547Z,17.93
2019-01-11T00:59:57.880Z,16.80
2019-01-11T01:03:02.210Z,14.07
2019-01-11T01:06:06.832Z,17.77
2019-01-11T01:09:11.121Z,18.00
2019-01-11T01:12:15.414Z,16.30
2019-01-11T01:15:20.598Z,17.70
2019-01-11T01:18:24.929Z,16.17
2019-01-11T01:21:29.242Z,17.20
2019-01-11T01:24:33.495Z,16.63
2019-01-11T01:27:37.750Z,15.10
2019-01-11T01:30:42.329Z,16.03
2019-01-11T01:33:46.580Z,17.27
2019-01-11T01:36:50.877Z,18.10
2019-01-11T01:39:55.206Z,16.77
2019-01-11T01:43:00.901Z,17.63
2019-01-11T01:46:05.590Z,19.20
2019-01-11T01:49:09.990Z,18.27
2019-01-11T01:52:14.512Z,19.50
2019-01-11T01:55:18.766Z,19.13
2019-01-11T01:58:23.080Z,18.87
2019-01-11T02:01:27.442Z,22.87
2019-01-11T02:04:31.802Z,22.40
2019-01-11T02:07:36.110Z,20.83
2019-01-11T02:10:40.365Z,19.40
2019-01-11T02:13:44.781Z,20.70
2019-01-11T02:16:49.057Z,19.17
2019-01-11T02:19:53.474Z,21.43
2019-01-11T02:22:57.698Z,22.77
2019-01-11T02:26:02.048Z,21.37
2019-01-11T02:29:06.459Z,20.97
2019-01-11T02:32:10.784Z,21.87
2019-01-11T02:35:15.129Z,21.30
2019-01-11T02:38:19.445Z,21.40
2019-01-11T02:41:23.765Z,20.27
2019-01-11T02:44:28.065Z,20.87
2019-01-11T02:47:32.395Z,22.80
2019-01-11T02:50:36.745Z,21.00
2019-01-11T02:53:41.085Z,22.03
2019-01-11T02:56:45.455Z,19.10
2019-01-11T02:59:49.796Z,17.10
2019-01-11T03:02:54.082Z,18.70
2019-01-11T03:05:58.416Z,24.07
2019-01-11T03:09:02.760Z,21.60
2019-01-11T03:12:07.150Z,20.00
2019-01-11T03:15:11.546Z,16.03
2019-01-11T03:18:15.885Z,19.77
2019-01-11T03:21:20.150Z,19.20
2019-01-11T03:24:24.450Z,18.90
2019-01-11T03:27:28.749Z,16.93
2019-01-11T03:30:33.141Z,18.30
2019-01-11T03:33:37.461Z,17.10
2019-01-11T03:36:41.795Z,15.73
2019-01-11T03:39:46.148Z,15.03
2019-01-11T03:42:50.696Z,16.53
2019-01-11T03:45:54.951Z,15.87
2019-01-11T03:48:59.149Z,17.00
2019-01-11T03:52:03.404Z,15.00
2019-01-11T03:55:09.999Z,14.93
2019-01-11T03:58:14.241Z,16.30
2019-01-11T04:01:18.567Z,15.40
2019-01-11T04:04:22.811Z,14.03
2019-01-11T04:07:27.076Z,16.50
2019-01-11T04:10:31.410Z,13.77
2019-01-11T04:13:35.658Z,16.20
2019-01-11T04:16:39.977Z,14.00
2019-01-11T04:19:44.325Z,16.13
2019-01-11T04:22:51.780Z,15.63
2019-01-11T04:25:56.150Z,15.20
2019-01-11T04:29:00.471Z,16.57
2019-01-11T04:32:04.694Z,14.67
2019-01-11T04:35:09.174Z,13.50
2019-01-11T04:38:13.426Z,16.37
2019-01-11T04:41:17.701Z,16.47
2019-01-11T04:44:22.008Z,15.60
2019-01-11T04:47:26.506Z,14.13
2019-01-11T04:50:30.895Z,14.97
2019-01-11T04:53:35.179Z,16.50
2019-01-11T04:56:39.469Z,13.83
2019-01-11T04:59:43.764Z,14.70
2019-01-11T05:02:48.054Z,14.80
2019-01-11T05:05:52.361Z,15.73
2019-01-11T05:08:56.654Z,16.07
2019-01-11T05:12:00.934Z,15.17
2019-01-11T05:15:06.054Z,18.70
2019-01-11T05:18:10.355Z,17.50
2019-01-11T05:21:14.754Z,17.73
2019-01-11T05:24:19.149Z,14.30
2019-01-11T05:27:23.594Z,17.20
2019-01-11T05:30:27.879Z,14.80
2019-01-11T05:33:32.186Z,18.07
2019-01-11T05:36:36.571Z,16.70
2019-01-11T05:39:40.846Z,19.30
2019-01-11T05:42:45.279Z,20.53
2019-01-11T05:45:49.588Z,16.07
2019-01-11T05:48:54.158Z,17.63
2019-01-11T05:51:58.443Z,21.23
2019-01-11T05:55:02.746Z,19.43
2019-01-11T05:58:25.965Z,20.23
2019-01-11T06:01:30.281Z,22.73
2019-01-11T06:04:44.166Z,22.37
2019-01-11T06:07:54.979Z,22.53
2019-01-11T06:10:59.416Z,22.33
2019-01-11T06:14:03.766Z,23.77
2019-01-11T06:17:08.121Z,24.33
2019-01-11T06:20:15.251Z,28.40
2019-01-11T06:23:19.578Z,26.47
2019-01-11T06:26:23.988Z,26.50
2019-01-11T06:29:28.420Z,29.40
2019-01-11T06:32:32.720Z,28.07
2019-01-11T06:35:36.976Z,27.37
2019-01-11T06:38:41.266Z,27.53
2019-01-11T06:41:51.490Z,29.10
2019-01-11T06:44:55.951Z,28.03
2019-01-11T06:48:00.321Z,28.20
2019-01-11T06:51:04.629Z,24.70
2019-01-11T06:54:08.929Z,30.10
2019-01-11T06:57:13.223Z,30.37
2019-01-11T07:00:17.664Z,30.60
2019-01-11T07:03:21.950Z,27.60
2019-01-11T07:06:26.218Z,28.03
2019-01-11T07:09:30.569Z,29.83
2019-01-11T07:12:34.877Z,32.73
2019-01-11T07:15:39.198Z,34.33
2019-01-11T07:18:43.504Z,37.53
2019-01-11T07:21:47.789Z,33.20
2019-01-11T07:24:52.162Z,35.50
2019-01-11T07:28:01.058Z,38.37
2019-01-11T07:31:09.954Z,29.20
2019-01-11T07:34:14.245Z,39.17
2019-01-11T07:37:18.579Z,33.60
2019-01-11T07:40:22.853Z,31.40
2019-01-11T07:43:27.171Z,45.40
2019-01-11T07:46:31.415Z,37.40
2019-01-11T07:49:35.750Z,34.07
2019-01-11T07:52:40.304Z,37.40
2019-01-11T07:55:44.613Z,43.80
2019-01-11T07:58:48.940Z,38.07
2019-01-11T08:01:53.170Z,42.07
2019-01-11T08:04:57.484Z,31.70
2019-01-11T08:08:01.773Z,40.13
2019-01-11T08:11:06.194Z,36.37
2019-01-11T08:14:10.599Z,36.87
2019-01-11T08:17:14.908Z,32.87
2019-01-11T08:20:19.159Z,43.33
2019-01-11T08:23:23.458Z,37.20
2019-01-11T08:26:27.790Z,34.47
2019-01-11T08:29:32.145Z,39.27
2019-01-11T08:32:36.465Z,40.07
2019-01-11T08:35:40.778Z,35.53
2019-01-11T08:38:45.065Z,35.07
2019-01-11T08:41:49.380Z,40.73
2019-01-11T08:44:53.774Z,31.80
2019-01-11T08:47:58.152Z,38.90
2019-01-11T08:51:02.956Z,46.37
2019-01-11T08:54:07.299Z,37.20
2019-01-11T08:57:11.695Z,45.63
2019-01-11T09:00:16.150Z,38.00
2019-01-11T09:03:20.529Z,46.23
2019-01-11T09:06:24.903Z,37.57
2019-01-11T09:09:29.267Z,43.70
2019-01-11T09:12:33.599Z,45.73
2019-01-11T09:15:37.987Z,48.50
2019-01-11T09:18:54.679Z,65.33
2019-01-11T09:21:58.979Z,38.93
2019-01-11T09:25:03.315Z,37.70
2019-01-11T09:28:07.733Z,28.93
2019-01-11T09:31:12.237Z,24.43
2019-01-11T09:34:16.548Z,21.20
2019-01-11T09:37:20.899Z,22.40
2019-01-11T09:40:25.274Z,19.93
2019-01-11T09:43:29.539Z,22.40
2019-01-11T09:46:33.922Z,18.70
2019-01-11T09:49:38.230Z,25.03
2019-01-11T09:52:42.590Z,26.10
2019-01-11T09:55:46.896Z,28.23
2019-01-11T09:58:51.175Z,29.70
2019-01-11T10:02:26.704Z,33.30
2019-01-11T10:05:31.049Z,34.13
2019-01-11T10:08:35.374Z,34.87
2019-01-11T10:11:39.764Z,36.00
2019-01-11T10:14:44.137Z,32.47
2019-01-11T10:17:50.194Z,32.57
2019-01-11T10:20:54.627Z,28.57
2019-01-11T10:23:59.051Z,39.03
2019-01-11T10:27:03.324Z,40.17
2019-01-11T10:30:11.219Z,36.63
2019-01-11T10:33:15.523Z,31.63
2019-01-11T10:36:19.858Z,32.57
2019-01-11T10:39:24.109Z,32.30
2019-01-11T10:42:28.442Z,35.27
2019-01-11T10:45:32.703Z,35.60
2019-01-11T10:48:37.012Z,39.43
2019-01-11T10:51:41.398Z,34.17
2019-01-11T10:54:45.754Z,31.90
2019-01-11T10:57:50.437Z,35.80
2019-01-11T11:00:54.790Z,30.77
2019-01-11T11:03:59.120Z,29.40
2019-01-11T11:07:03.548Z,33.90
2019-01-11T11:10:09.340Z,33.03
2019-01-11T11:13:13.647Z,31.90
2019-01-11T11:16:17.930Z,35.37
2019-01-11T11:19:22.234Z,35.93
2019-01-11T11:22:26.514Z,32.23
2019-01-11T11:25:30.834Z,33.53
2019-01-11T11:28:35.133Z,31.93
2019-01-11T11:31:39.396Z,26.67
2019-01-11T11:34:46.428Z,23.60
2019-01-11T11:37:50.857Z,23.13
2019-01-11T11:40:55.168Z,18.17
2019-01-11T11:43:59.498Z,21.43
2019-01-11T11:47:03.813Z,15.67
2019-01-11T11:50:08.515Z,20.13
2019-01-11T11:53:12.769Z,15.53
2019-01-11T11:56:17.102Z,22.10
2019-01-11T11:59:21.375Z,16.10
2019-01-11T12:02:25.672Z,17.23
2019-01-11T12:05:30.017Z,15.73
2019-01-11T12:08:34.409Z,10.10
2019-01-11T12:11:39.023Z,18.80
2019-01-11T12:14:43.298Z,11.53
2019-01-11T12:17:47.628Z,12.47
2019-01-11T12:20:51.892Z,13.33
2019-01-11T12:23:56.169Z,10.50
2019-01-11T12:27:00.395Z,8.10
2019-01-11T12:30:06.444Z,10.03
2019-01-11T12:33:10.788Z,10.60
2019-01-11T12:36:15.100Z,9.87
2019-01-11T12:39:19.458Z,8.53
2019-01-11T12:42:23.723Z,7.33
2019-01-11T12:45:28.013Z,7.17
2019-01-11T12:48:32.469Z,8.87
2019-01-11T12:51:36.833Z,11.47
2019-01-11T12:54:41.161Z,9.13
2019-01-11T12:57:45.498Z,9.40
2019-01-11T13:00:49.723Z,9.40
2019-01-11T13:03:54.081Z,7.50
2019-01-11T13:06:58.436Z,8.17
2019-01-11T13:10:02.748Z,10.20
2019-01-11T13:13:07.077Z,7.30
2019-01-11T13:16:11.427Z,7.60
2019-01-11T13:19:15.808Z,9.83
2019-01-11T13:22:20.145Z,6.23
2019-01-11T13:25:24.467Z,4.13
2019-01-11T13:28:28.759Z,5.20
2019-01-11T13:31:33.137Z,6.40
2019-01-11T13:34:37.477Z,8.00
2019-01-11T13:37:41.744Z,7.00
2019-01-11T13:40:46.083Z,5.40
2019-01-11T13:43:50.392Z,3.47
2019-01-11T13:46:54.772Z,5.03
2019-01-11T13:49:59.122Z,5.30
2019-01-11T13:53:03.529Z,8.03
2019-01-11T13:56:07.889Z,7.80
2019-01-11T13:59:12.162Z,8.70
2019-01-11T14:02:16.482Z,7.30
2019-01-11T14:05:20.794Z,5.37
2019-01-11T14:08:25.158Z,7.20
2019-01-11T14:11:29.484Z,7.97
2019-01-11T14:14:33.853Z,6.50
2019-01-11T14:17:38.182Z,5.20
2019-01-11T14:20:42.541Z,5.40
2019-01-11T14:23:46.915Z,8.40
2019-01-11T14:26:51.222Z,9.43
2019-01-11T14:29:55.541Z,7.63
2019-01-11T14:32:59.809Z,26.73
2019-01-11T14:36:04.396Z,8.53
2019-01-11T14:39:09.701Z,13.87
2019-01-11T14:42:14.061Z,14.10
2019-01-11T14:45:18.769Z,18.97
2019-01-11T14:48:23.078Z,10.37
2019-01-11T14:51:27.367Z,10.63
2019-01-11T14:54:31.738Z,8.17
2019-01-11T14:57:36.100Z,12.83
2019-01-11T15:00:40.537Z,6.40
2019-01-11T15:03:44.972Z,8.80
2019-01-11T15:06:49.454Z,5.00
2019-01-11T15:09:53.844Z,13.00
2019-01-11T15:12:58.248Z,12.57
2019-01-11T15:16:02.581Z,10.40
2019-01-11T15:19:07.037Z,8.00
2019-01-11T15:22:11.428Z,10.57
2019-01-11T15:25:15.728Z,8.50
2019-01-11T15:28:20.082Z,12.43
2019-01-11T15:31:24.396Z,8.17
2019-01-11T15:34:28.656Z,9.00
2019-01-11T15:37:33.061Z,7.17
2019-01-11T15:40:38.339Z,9.67
2019-01-11T15:43:42.756Z,9.10
2019-01-11T15:46:47.046Z,6.97
2019-01-11T15:49:51.439Z,10.80
2019-01-11T15:52:55.764Z,11.03
2019-01-11T15:56:01.896Z,9.47
2019-01-11T15:59:06.199Z,8.70
2019-01-11T16:02:10.512Z,6.87
2019-01-11T16:05:14.858Z,12.90
2019-01-11T16:08:19.148Z,7.83
2019-01-11T16:11:42.302Z,10.83
2019-01-11T16:14:58.352Z,6.50
2019-01-11T16:18:06.333Z,6.90
2019-01-11T16:21:10.623Z,6.23
2019-01-11T16:24:14.976Z,5.90
2019-01-11T16:27:19.374Z,11.40
2019-01-11T16:30:23.759Z,12.47
2019-01-11T16:33:28.058Z,9.10
2019-01-11T16:36:32.376Z,11.97
2019-01-11T16:39:36.701Z,5.77
2019-01-11T16:42:41.351Z,9.50
2019-01-11T16:45:45.766Z,10.30
2019-01-11T16:48:50.093Z,10.93
2019-01-11T16:51:55.293Z,8.27
2019-01-11T16:54:59.646Z,13.17
2019-01-11T16:58:04.102Z,11.93
2019-01-11T17:01:08.517Z,10.40
2019-01-11T17:04:12.961Z,14.63
2019-01-11T17:07:17.276Z,8.40
2019-01-11T17:10:21.585Z,7.77
2019-01-11T17:13:28.013Z,11.00
2019-01-11T17:16:32.433Z,10.03
2019-01-11T17:19:36.727Z,10.97
2019-01-11T17:22:41.046Z,16.73
2019-01-11T17:25:45.402Z,18.23
2019-01-11T17:28:49.704Z,11.60
2019-01-11T17:31:54.007Z,18.83
2019-01-11T17:34:58.310Z,10.90
2019-01-11T17:38:02.666Z,17.53
2019-01-11T17:41:07.007Z,13.00
2019-01-11T17:44:11.281Z,18.80
2019-01-11T17:47:15.671Z,18.10
2019-01-11T17:50:20.148Z,15.63
2019-01-11T17:53:24.556Z,16.00
2019-01-11T17:56:28.949Z,12.80
2019-01-11T17:59:33.282Z,15.20
2019-01-11T18:02:37.742Z,19.50
2019-01-11T18:05:42.048Z,15.50
2019-01-11T18:08:46.357Z,15.07
2019-01-11T18:11:50.674Z,19.63
2019-01-11T18:14:54.965Z,24.93
2019-01-11T18:18:00.397Z,15.17
2019-01-11T18:21:04.892Z,16.13
2019-01-11T18:24:09.150Z,23.00
2019-01-11T18:27:13.505Z,20.23
2019-01-11T18:30:18.187Z,16.27
2019-01-11T18:33:22.483Z,17.77
2019-01-11T18:36:26.807Z,21.03
2019-01-11T18:39:31.142Z,23.57
2019-01-11T18:42:35.897Z,17.40
2019-01-11T18:45:40.231Z,23.30
2019-01-11T18:48:44.541Z,24.07
2019-01-11T18:51:48.943Z,18.07
2019-01-11T18:54:53.342Z,20.70
2019-01-11T18:57:57.774Z,21.67
2019-01-11T19:01:02.082Z,13.67
2019-01-11T19:04:06.416Z,16.40
2019-01-11T19:07:12.777Z,17.13
2019-01-11T19:10:18.260Z,22.80
2019-01-11T19:13:22.600Z,14.00
2019-01-11T19:16:27.041Z,14.90
2019-01-11T19:19:31.508Z,19.20
2019-01-11T19:22:35.850Z,24.33
2019-01-11T19:25:40.272Z,21.60
2019-01-11T19:28:44.566Z,19.70
2019-01-11T19:31:50.588Z,21.23
2019-01-11T19:34:55.000Z,26.93
2019-01-11T19:37:59.332Z,15.33
2019-01-11T19:41:03.755Z,15.40
2019-01-11T19:44:08.074Z,18.40
2019-01-11T19:47:12.466Z,17.43
2019-01-11T19:50:19.515Z,19.80
2019-01-11T19:53:27.653Z,22.10
2019-01-11T19:56:30.092Z,18.20
2019-01-11T19:59:34.461Z,23.17
2019-01-11T20:02:38.867Z,20.67
2019-01-11T20:05:43.433Z,22.23
2019-01-11T20:08:47.782Z,16.10
2019-01-11T20:11:52.086Z,17.77
2019-01-11T20:14:56.381Z,16.77
2019-01-11T20:18:00.701Z,16.97
2019-01-11T20:21:05.240Z,24.47
2019-01-11T20:24:09.602Z,17.93
2019-01-11T20:27:14.112Z,26.30
2019-01-11T20:30:20.582Z,24.10
2019-01-11T20:33:25.021Z,20.33
2019-01-11T20:36:31.457Z,20.27
2019-01-11T20:39:35.891Z,20.40
2019-01-11T20:42:40.223Z,20.87
2019-01-11T20:45:44.540Z,23.20
2019-01-11T20:48:48.822Z,22.37
2019-01-11T20:51:53.155Z,20.00
2019-01-11T20:54:57.450Z,20.93
2019-01-11T20:58:01.926Z,24.60
2019-01-11T21:01:06.841Z,18.73
2019-01-11T21:04:11.150Z,22.30
2019-01-11T21:07:15.501Z,19.23
2019-01-11T21:10:20.032Z,20.83
2019-01-11T21:13:24.549Z,21.90
2019-01-11T21:16:28.922Z,15.40
2019-01-11T21:19:33.341Z,28.30
2019-01-11T21:22:37.685Z,29.90
2019-01-11T21:25:42.120Z,20.63
2019-01-11T21:28:46.419Z,32.03
2019-01-11T21:31:50.714Z,20.93
2019-01-11T21:34:55.104Z,26.90
2019-01-11T21:37:59.681Z,35.97
2019-01-11T21:41:04.066Z,23.07
2019-01-11T21:44:08.410Z,28.30
2019-01-11T21:47:12.721Z,22.30
2019-01-11T21:50:22.072Z,22.03
2019-01-11T21:53:26.375Z,31.60
2019-01-11T21:56:30.669Z,26.27
2019-01-11T21:59:34.986Z,20.40
2019-01-11T22:02:39.295Z,27.80
2019-01-11T22:05:43.835Z,18.77
2019-01-11T22:08:48.256Z,20.13
2019-01-11T22:11:52.626Z,19.90
2019-01-11T22:14:56.954Z,20.40
2019-01-11T22:18:01.310Z,21.37
2019-01-11T22:21:05.740Z,24.40
2019-01-11T22:24:10.010Z,21.67
2019-01-11T22:27:14.352Z,22.77
2019-01-11T22:30:20.610Z,35.53
2019-01-11T22:33:24.969Z,26.67
2019-01-11T22:36:29.264Z,27.07
2019-01-11T22:39:33.561Z,19.10
2019-01-11T22:42:37.906Z,20.73
2019-01-11T22:45:42.271Z,23.43
2019-01-11T22:48:46.612Z,21.50
2019-01-11T22:51:50.956Z,24.27
2019-01-11T22:54:55.290Z,17.90
2019-01-11T22:57:59.661Z,20.90
2019-01-11T23:01:39.231Z,21.00
2019-01-11T23:04:43.589Z,20.93
2019-01-11T23:07:54.355Z,24.10
2019-01-11T23:11:47.798Z,17.80
2019-01-11T23:14:52.111Z,29.83
2019-01-11T23:18:03.170Z,22.93
2019-01-11T23:21:09.325Z,23.80
2019-01-11T23:24:17.351Z,27.83
2019-01-11T23:27:19.631Z,33.07
2019-01-11T23:30:24.037Z,25.93
2019-01-11T23:33:28.423Z,20.40
2019-01-11T23:36:32.676Z,30.87
2019-01-11T23:39:36.996Z,19.37
2019-01-11T23:42:41.224Z,32.10
2019-01-11T23:45:45.645Z,23.23
2019-01-11T23:48:50.074Z,21.60
2019-01-11T23:51:54.367Z,23.03
2019-01-11T23:54:58.641Z,19.73
2019-01-11T23:58:03.001Z,25.63
